Terminal Aerodrome Forecast
Issued by NWS

Home | Current Version | Previous Version | Text Only | Print | Product List | Glossary On
Versions: 1 2 3 4 5 6 7 8 9 10 11 12 13 14 15 16 17 18
000
FTUS43 KMQT 251720
TAFIWD
TAF
KIWD 251720Z 2518/2618 09007KT P6SM SCT020
     FM252000 10007KT P6SM BKN070
     FM260000 11008KT P6SM -SHRA OVC100
      TEMPO 2600/2601 -TSRA OVC040CB
     FM260600 00000KT 3SM BR OVC010
     FM260800 23003KT 2SM BR OVC003
     FM261300 00000KT 1 1/2SM BR BKN003
     FM261700 27003KT 4SM BR SCT020=

USA.gov is the U.S. government's official web portal to all federal, state and local government web resources and services.